sensor_id;sensor_type;location;lat;lon;timestamp;P1;durP1;ratioP1;P2;durP2;ratioP2
6878;SDS011;3478;51.462;7.338;2024-03-23T00:52:48;10.30;;;3.80;;
6878;SDS011;3478;51.462;7.338;2024-03-23T00:57:49;11.97;;;4.40;;
6878;SDS011;3478;51.462;7.338;2024-03-23T01:02:51;8.40;;;3.77;;
6878;SDS011;3478;51.462;7.338;2024-03-23T01:07:54;10.60;;;3.90;;
6878;SDS011;3478;51.462;7.338;2024-03-23T01:12:56;11.03;;;3.93;;
6878;SDS011;3478;51.462;7.338;2024-03-23T01:17:58;14.30;;;3.40;;
6878;SDS011;3478;51.462;7.338;2024-03-23T01:23:01;8.80;;;2.87;;
6878;SDS011;3478;51.462;7.338;2024-03-23T01:28:03;7.67;;;2.70;;
6878;SDS011;3478;51.462;7.338;2024-03-23T01:33:06;11.97;;;3.10;;
6878;SDS011;3478;51.462;7.338;2024-03-23T01:38:09;11.43;;;3.40;;
6878;SDS011;3478;51.462;7.338;2024-03-23T01:43:11;6.90;;;3.13;;
6878;SDS011;3478;51.462;7.338;2024-03-23T01:48:13;12.03;;;3.30;;
6878;SDS011;3478;51.462;7.338;2024-03-23T01:53:16;15.53;;;3.30;;
6878;SDS011;3478;51.462;7.338;2024-03-23T01:58:19;5.60;;;2.27;;
6878;SDS011;3478;51.462;7.338;2024-03-23T02:03:21;8.30;;;1.83;;
6878;SDS011;3478;51.462;7.338;2024-03-23T02:08:25;8.07;;;2.07;;
6878;SDS011;3478;51.462;7.338;2024-03-23T02:13:27;6.10;;;1.37;;
6878;SDS011;3478;51.462;7.338;2024-03-23T02:18:29;6.97;;;1.60;;
6878;SDS011;3478;51.462;7.338;2024-03-23T02:23:32;1.83;;;1.00;;
6878;SDS011;3478;51.462;7.338;2024-03-23T02:28:34;11.40;;;2.30;;
6878;SDS011;3478;51.462;7.338;2024-03-23T02:33:35;4.20;;;1.60;;
6878;SDS011;3478;51.462;7.338;2024-03-23T02:38:39;5.00;;;1.53;;
6878;SDS011;3478;51.462;7.338;2024-03-23T02:43:41;6.80;;;2.13;;
6878;SDS011;3478;51.462;7.338;2024-03-23T02:48:43;6.00;;;1.80;;
6878;SDS011;3478;51.462;7.338;2024-03-23T02:53:46;4.07;;;1.43;;
6878;SDS011;3478;51.462;7.338;2024-03-23T02:58:48;7.13;;;1.93;;
6878;SDS011;3478;51.462;7.338;2024-03-23T03:03:49;5.63;;;1.00;;
6878;SDS011;3478;51.462;7.338;2024-03-23T03:08:53;1.70;;;1.03;;
6878;SDS011;3478;51.462;7.338;2024-03-23T03:13:54;2.60;;;0.80;;
6878;SDS011;3478;51.462;7.338;2024-03-23T03:18:56;3.93;;;1.03;;
6878;SDS011;3478;51.462;7.338;2024-03-23T03:24:00;4.70;;;1.13;;
6878;SDS011;3478;51.462;7.338;2024-03-23T03:29:02;6.00;;;1.50;;
6878;SDS011;3478;51.462;7.338;2024-03-23T03:34:04;7.70;;;2.40;;
6878;SDS011;3478;51.462;7.338;2024-03-23T03:39:08;2.00;;;1.57;;
6878;SDS011;3478;51.462;7.338;2024-03-23T03:44:10;5.23;;;2.30;;
6878;SDS011;3478;51.462;7.338;2024-03-23T03:49:12;4.73;;;1.77;;
6878;SDS011;3478;51.462;7.338;2024-03-23T03:54:15;3.50;;;2.20;;
6878;SDS011;3478;51.462;7.338;2024-03-23T03:59:17;7.20;;;2.00;;
6878;SDS011;3478;51.462;7.338;2024-03-23T04:04:20;3.97;;;1.07;;
6878;SDS011;3478;51.462;7.338;2024-03-23T04:09:24;5.83;;;1.53;;
6878;SDS011;3478;51.462;7.338;2024-03-23T04:14:25;7.77;;;2.17;;
6878;SDS011;3478;51.462;7.338;2024-03-23T04:19:27;5.00;;;1.80;;
6878;SDS011;3478;51.462;7.338;2024-03-23T04:24:31;3.87;;;1.67;;
6878;SDS011;3478;51.462;7.338;2024-03-23T04:29:32;3.80;;;1.90;;
6878;SDS011;3478;51.462;7.338;2024-03-23T04:34:34;5.17;;;1.50;;
6878;SDS011;3478;51.462;7.338;2024-03-23T04:39:38;4.57;;;1.90;;
6878;SDS011;3478;51.462;7.338;2024-03-23T04:44:40;5.43;;;1.57;;
6878;SDS011;3478;51.462;7.338;2024-03-23T04:49:42;3.20;;;1.60;;
6878;SDS011;3478;51.462;7.338;2024-03-23T04:54:45;3.93;;;1.20;;
6878;SDS011;3478;51.462;7.338;2024-03-23T04:59:47;10.90;;;2.50;;
6878;SDS011;3478;51.462;7.338;2024-03-23T05:04:49;4.27;;;1.77;;
6878;SDS011;3478;51.462;7.338;2024-03-23T05:09:52;7.60;;;3.07;;
6878;SDS011;3478;51.462;7.338;2024-03-23T05:14:54;8.83;;;2.43;;
6878;SDS011;3478;51.462;7.338;2024-03-23T05:19:56;10.67;;;3.77;;
6878;SDS011;3478;51.462;7.338;2024-03-23T05:24:59;6.97;;;4.07;;
6878;SDS011;3478;51.462;7.338;2024-03-23T05:30:04;5.60;;;2.40;;
6878;SDS011;3478;51.462;7.338;2024-03-23T05:35:09;8.93;;;3.33;;
6878;SDS011;3478;51.462;7.338;2024-03-23T05:40:13;9.77;;;3.20;;
6878;SDS011;3478;51.462;7.338;2024-03-23T05:45:15;9.10;;;2.83;;
6878;SDS011;3478;51.462;7.338;2024-03-23T05:50:18;7.10;;;5.00;;
6878;SDS011;3478;51.462;7.338;2024-03-23T05:55:22;10.93;;;5.40;;
6878;SDS011;3478;51.462;7.338;2024-03-23T06:00:24;11.17;;;5.77;;
6878;SDS011;3478;51.462;7.338;2024-03-23T06:05:26;10.97;;;5.40;;
6878;SDS011;3478;51.462;7.338;2024-03-23T06:10:30;12.03;;;6.23;;
6878;SDS011;3478;51.462;7.338;2024-03-23T06:15:31;14.73;;;6.10;;
6878;SDS011;3478;51.462;7.338;2024-03-23T06:20:38;10.23;;;7.33;;
6878;SDS011;3478;51.462;7.338;2024-03-23T06:25:41;13.17;;;7.90;;
6878;SDS011;3478;51.462;7.338;2024-03-23T06:30:43;12.23;;;8.07;;
6878;SDS011;3478;51.462;7.338;2024-03-23T06:35:49;11.40;;;8.93;;
6878;SDS011;3478;51.462;7.338;2024-03-23T06:40:53;15.73;;;8.97;;
6878;SDS011;3478;51.462;7.338;2024-03-23T06:45:56;17.20;;;8.20;;
6878;SDS011;3478;51.462;7.338;2024-03-23T06:50:58;24.50;;;11.27;;
6878;SDS011;3478;51.462;7.338;2024-03-23T06:56:02;17.93;;;11.70;;
6878;SDS011;3478;51.462;7.338;2024-03-23T07:01:04;23.13;;;14.00;;
6878;SDS011;3478;51.462;7.338;2024-03-23T07:06:06;27.23;;;15.43;;
6878;SDS011;3478;51.462;7.338;2024-03-23T07:11:09;23.17;;;14.37;;
6878;SDS011;3478;51.462;7.338;2024-03-23T07:16:11;25.63;;;14.93;;
6878;SDS011;3478;51.462;7.338;2024-03-23T07:21:14;23.80;;;15.10;;
6878;SDS011;3478;51.462;7.338;2024-03-23T07:26:18;24.53;;;14.50;;
6878;SDS011;3478;51.462;7.338;2024-03-23T07:31:20;28.03;;;14.07;;
6878;SDS011;3478;51.462;7.338;2024-03-23T07:36:22;22.07;;;14.50;;
6878;SDS011;3478;51.462;7.338;2024-03-23T07:41:26;29.13;;;15.10;;
6878;SDS011;3478;51.462;7.338;2024-03-23T07:46:28;25.57;;;14.30;;
6878;SDS011;3478;51.462;7.338;2024-03-23T07:51:30;20.30;;;13.53;;
6878;SDS011;3478;51.462;7.338;2024-03-23T07:56:34;31.13;;;16.20;;
6878;SDS011;3478;51.462;7.338;2024-03-23T08:01:36;22.13;;;14.20;;
6878;SDS011;3478;51.462;7.338;2024-03-23T08:06:38;18.53;;;13.57;;
6878;SDS011;3478;51.462;7.338;2024-03-23T08:11:41;22.03;;;12.10;;
6878;SDS011;3478;51.462;7.338;2024-03-23T08:16:45;24.37;;;11.73;;
6878;SDS011;3478;51.462;7.338;2024-03-23T08:21:49;17.13;;;12.10;;
6878;SDS011;3478;51.462;7.338;2024-03-23T08:26:53;19.80;;;10.63;;
6878;SDS011;3478;51.462;7.338;2024-03-23T08:31:56;23.60;;;11.33;;
6878;SDS011;3478;51.462;7.338;2024-03-23T08:36:58;14.47;;;9.77;;
6878;SDS011;3478;51.462;7.338;2024-03-23T08:42:01;19.93;;;9.40;;
6878;SDS011;3478;51.462;7.338;2024-03-23T08:47:03;21.00;;;7.77;;
6878;SDS011;3478;51.462;7.338;2024-03-23T08:52:06;18.30;;;9.00;;
6878;SDS011;3478;51.462;7.338;2024-03-23T08:57:09;12.57;;;9.30;;
6878;SDS011;3478;51.462;7.338;2024-03-23T09:02:14;13.73;;;5.50;;
6878;SDS011;3478;51.462;7.338;2024-03-23T09:07:16;24.97;;;6.93;;
6878;SDS011;3478;51.462;7.338;2024-03-23T09:12:20;18.00;;;6.30;;
6878;SDS011;3478;51.462;7.338;2024-03-23T09:17:22;10.33;;;4.93;;
6878;SDS011;3478;51.462;7.338;2024-03-23T09:22:23;8.33;;;4.10;;
6878;SDS011;3478;51.462;7.338;2024-03-23T09:27:27;4.80;;;3.90;;
6878;SDS011;3478;51.462;7.338;2024-03-23T09:32:29;6.23;;;3.33;;
6878;SDS011;3478;51.462;7.338;2024-03-23T09:37:31;5.13;;;1.97;;
6878;SDS011;3478;51.462;7.338;2024-03-23T09:42:34;2.20;;;1.13;;
6878;SDS011;3478;51.462;7.338;2024-03-23T09:47:37;2.70;;;0.80;;
6878;SDS011;3478;51.462;7.338;2024-03-23T09:52:39;5.63;;;1.37;;
6878;SDS011;3478;51.462;7.338;2024-03-23T09:57:43;7.37;;;3.23;;
6878;SDS011;3478;51.462;7.338;2024-03-23T10:02:45;4.40;;;2.67;;
6878;SDS011;3478;51.462;7.338;2024-03-23T10:07:48;7.03;;;2.60;;
6878;SDS011;3478;51.462;7.338;2024-03-23T10:12:51;12.40;;;4.07;;
6878;SDS011;3478;51.462;7.338;2024-03-23T10:17:53;7.23;;;4.13;;
6878;SDS011;3478;51.462;7.338;2024-03-23T10:22:55;7.23;;;2.90;;
6878;SDS011;3478;51.462;7.338;2024-03-23T10:27:59;7.90;;;3.17;;
6878;SDS011;3478;51.462;7.338;2024-03-23T10:33:08;9.40;;;2.83;;
6878;SDS011;3478;51.462;7.338;2024-03-23T10:38:11;10.27;;;3.30;;
6878;SDS011;3478;51.462;7.338;2024-03-23T10:43:14;2.83;;;1.53;;
6878;SDS011;3478;51.462;7.338;2024-03-23T10:48:17;4.73;;;1.30;;
6878;SDS011;3478;51.462;7.338;2024-03-23T10:53:19;4.23;;;0.93;;
6878;SDS011;3478;51.462;7.338;2024-03-23T10:58:27;7.03;;;1.20;;
6878;SDS011;3478;51.462;7.338;2024-03-23T11:03:32;6.80;;;1.03;;
6878;SDS011;3478;51.462;7.338;2024-03-23T11:08:36;1.80;;;0.80;;
6878;SDS011;3478;51.462;7.338;2024-03-23T11:13:40;1.20;;;0.50;;
6878;SDS011;3478;51.462;7.338;2024-03-23T11:18:42;0.50;;;0.30;;
6878;SDS011;3478;51.462;7.338;2024-03-23T11:23:45;6.57;;;0.40;;
6878;SDS011;3478;51.462;7.338;2024-03-23T11:28:48;1.53;;;0.30;;
6878;SDS011;3478;51.462;7.338;2024-03-23T11:33:50;1.73;;;0.40;;
6878;SDS011;3478;51.462;7.338;2024-03-23T11:39:12;0.63;;;0.37;;
6878;SDS011;3478;51.462;7.338;2024-03-23T11:44:21;1.80;;;0.50;;
6878;SDS011;3478;51.462;7.338;2024-03-23T11:49:24;1.83;;;0.40;;
6878;SDS011;3478;51.462;7.338;2024-03-23T11:54:27;2.50;;;0.70;;
6878;SDS011;3478;51.462;7.338;2024-03-23T11:59:34;5.83;;;0.70;;
6878;SDS011;3478;51.462;7.338;2024-03-23T12:04:37;4.47;;;0.87;;
6878;SDS011;3478;51.462;7.338;2024-03-23T12:09:40;4.03;;;0.80;;
6878;SDS011;3478;51.462;7.338;2024-03-23T12:14:44;2.73;;;1.20;;
6878;SDS011;3478;51.462;7.338;2024-03-23T12:19:46;1.70;;;1.37;;
6878;SDS011;3478;51.462;7.338;2024-03-23T12:24:48;1.50;;;0.87;;
6878;SDS011;3478;51.462;7.338;2024-03-23T12:29:52;3.60;;;1.13;;
6878;SDS011;3478;51.462;7.338;2024-03-23T12:34:54;1.97;;;1.10;;
6878;SDS011;3478;51.462;7.338;2024-03-23T12:39:56;3.60;;;0.80;;
6878;SDS011;3478;51.462;7.338;2024-03-23T12:44:59;2.77;;;0.70;;
6878;SDS011;3478;51.462;7.338;2024-03-23T12:50:01;3.00;;;0.60;;
6878;SDS011;3478;51.462;7.338;2024-03-23T12:55:04;1.57;;;0.60;;
6878;SDS011;3478;51.462;7.338;2024-03-23T13:00:08;1.77;;;0.40;;
6878;SDS011;3478;51.462;7.338;2024-03-23T13:05:11;2.10;;;0.67;;
6878;SDS011;3478;51.462;7.338;2024-03-23T13:10:13;3.80;;;0.60;;
6878;SDS011;3478;51.462;7.338;2024-03-23T13:15:17;3.17;;;0.70;;
6878;SDS011;3478;51.462;7.338;2024-03-23T13:20:20;3.77;;;1.20;;
6878;SDS011;3478;51.462;7.338;2024-03-23T13:25:22;2.60;;;0.67;;
6878;SDS011;3478;51.462;7.338;2024-03-23T13:30:26;1.80;;;0.70;;
6878;SDS011;3478;51.462;7.338;2024-03-23T13:35:28;2.27;;;0.60;;
6878;SDS011;3478;51.462;7.338;2024-03-23T13:40:30;2.80;;;0.70;;
6878;SDS011;3478;51.462;7.338;2024-03-23T13:45:33;0.73;;;0.50;;
6878;SDS011;3478;51.462;7.338;2024-03-23T13:50:36;1.03;;;0.50;;
6878;SDS011;3478;51.462;7.338;2024-03-23T13:55:43;0.70;;;0.40;;
6878;SDS011;3478;51.462;7.338;2024-03-23T14:00:50;3.93;;;0.97;;
6878;SDS011;3478;51.462;7.338;2024-03-23T14:05:52;1.80;;;0.60;;
6878;SDS011;3478;51.462;7.338;2024-03-23T14:10:56;1.60;;;0.70;;
6878;SDS011;3478;51.462;7.338;2024-03-23T14:15:59;4.63;;;0.70;;
6878;SDS011;3478;51.462;7.338;2024-03-23T14:21:02;2.60;;;0.70;;
6878;SDS011;3478;51.462;7.338;2024-03-23T14:26:04;3.00;;;0.50;;
6878;SDS011;3478;51.462;7.338;2024-03-23T14:31:08;1.63;;;0.40;;
6878;SDS011;3478;51.462;7.338;2024-03-23T14:36:11;2.50;;;0.50;;
6878;SDS011;3478;51.462;7.338;2024-03-23T14:41:13;1.40;;;0.50;;
6878;SDS011;3478;51.462;7.338;2024-03-23T14:46:17;2.00;;;0.40;;
6878;SDS011;3478;51.462;7.338;2024-03-23T14:51:19;1.20;;;0.40;;
6878;SDS011;3478;51.462;7.338;2024-03-23T14:56:22;0.87;;;0.40;;
6878;SDS011;3478;51.462;7.338;2024-03-23T15:01:25;1.50;;;0.40;;
6878;SDS011;3478;51.462;7.338;2024-03-23T15:06:27;2.17;;;0.60;;
6878;SDS011;3478;51.462;7.338;2024-03-23T15:11:29;1.00;;;0.60;;
6878;SDS011;3478;51.462;7.338;2024-03-23T15:16:35;0.80;;;0.40;;
6878;SDS011;3478;51.462;7.338;2024-03-23T15:21:37;2.50;;;0.40;;
6878;SDS011;3478;51.462;7.338;2024-03-23T15:26:40;1.77;;;0.50;;
6878;SDS011;3478;51.462;7.338;2024-03-23T15:31:44;0.93;;;0.50;;
6878;SDS011;3478;51.462;7.338;2024-03-23T15:36:46;2.83;;;0.80;;
6878;SDS011;3478;51.462;7.338;2024-03-23T15:41:49;2.00;;;0.80;;
6878;SDS011;3478;51.462;7.338;2024-03-23T15:46:53;3.63;;;0.80;;
6878;SDS011;3478;51.462;7.338;2024-03-23T15:51:55;1.93;;;0.60;;
6878;SDS011;3478;51.462;7.338;2024-03-23T15:56:57;3.23;;;0.60;;
6878;SDS011;3478;51.462;7.338;2024-03-23T16:02:01;1.03;;;0.50;;
6878;SDS011;3478;51.462;7.338;2024-03-23T16:07:03;4.43;;;0.73;;
6878;SDS011;3478;51.462;7.338;2024-03-23T16:12:05;2.53;;;0.90;;
6878;SDS011;3478;51.462;7.338;2024-03-23T16:17:08;2.40;;;1.00;;
6878;SDS011;3478;51.462;7.338;2024-03-23T16:22:10;2.00;;;0.67;;
6878;SDS011;3478;51.462;7.338;2024-03-23T16:27:12;0.80;;;0.50;;
6878;SDS011;3478;51.462;7.338;2024-03-23T16:32:16;2.23;;;0.63;;
6878;SDS011;3478;51.462;7.338;2024-03-23T16:37:19;1.10;;;0.47;;
6878;SDS011;3478;51.462;7.338;2024-03-23T16:42:21;3.63;;;0.70;;
6878;SDS011;3478;51.462;7.338;2024-03-23T16:47:24;1.40;;;0.50;;
6878;SDS011;3478;51.462;7.338;2024-03-23T16:52:27;2.40;;;0.67;;
6878;SDS011;3478;51.462;7.338;2024-03-23T16:57:29;1.70;;;0.60;;
6878;SDS011;3478;51.462;7.338;2024-03-23T17:02:33;1.90;;;0.50;;
6878;SDS011;3478;51.462;7.338;2024-03-23T17:07:37;1.60;;;0.50;;
6878;SDS011;3478;51.462;7.338;2024-03-23T17:12:39;1.37;;;0.50;;
6878;SDS011;3478;51.462;7.338;2024-03-23T17:17:43;3.90;;;1.13;;
6878;SDS011;3478;51.462;7.338;2024-03-23T17:22:45;2.20;;;0.60;;
6878;SDS011;3478;51.462;7.338;2024-03-23T17:27:53;1.00;;;0.77;;
6878;SDS011;3478;51.462;7.338;2024-03-23T17:32:57;1.27;;;0.37;;
6878;SDS011;3478;51.462;7.338;2024-03-23T17:38:00;0.73;;;0.40;;
6878;SDS011;3478;51.462;7.338;2024-03-23T17:43:04;2.10;;;0.40;;
6878;SDS011;3478;51.462;7.338;2024-03-23T17:48:11;0.60;;;0.30;;
6878;SDS011;3478;51.462;7.338;2024-03-23T17:53:14;2.17;;;0.50;;
6878;SDS011;3478;51.462;7.338;2024-03-23T17:58:19;2.10;;;0.60;;
6878;SDS011;3478;51.462;7.338;2024-03-23T18:03:23;1.30;;;0.63;;
6878;SDS011;3478;51.462;7.338;2024-03-23T18:08:25;2.00;;;1.07;;
6878;SDS011;3478;51.462;7.338;2024-03-23T18:13:27;0.93;;;0.50;;
6878;SDS011;3478;51.462;7.338;2024-03-23T18:18:30;1.27;;;0.80;;
6878;SDS011;3478;51.462;7.338;2024-03-23T18:23:32;1.53;;;1.40;;
6878;SDS011;3478;51.462;7.338;2024-03-23T18:28:34;1.67;;;0.80;;
6878;SDS011;3478;51.462;7.338;2024-03-23T18:33:39;5.57;;;1.17;;
6878;SDS011;3478;51.462;7.338;2024-03-23T18:38:41;4.93;;;1.03;;
6878;SDS011;3478;51.462;7.338;2024-03-23T18:43:45;3.60;;;2.47;;
6878;SDS011;3478;51.462;7.338;2024-03-23T18:48:49;3.60;;;0.80;;
6878;SDS011;3478;51.462;7.338;2024-03-23T18:53:51;3.90;;;1.57;;
6878;SDS011;3478;51.462;7.338;2024-03-23T18:58:54;3.30;;;1.00;;
6878;SDS011;3478;51.462;7.338;2024-03-23T19:03:57;2.17;;;1.03;;
6878;SDS011;3478;51.462;7.338;2024-03-23T19:08:59;2.20;;;1.07;;
6878;SDS011;3478;51.462;7.338;2024-03-23T19:14:01;4.10;;;0.90;;
6878;SDS011;3478;51.462;7.338;2024-03-23T19:19:04;2.00;;;0.70;;
6878;SDS011;3478;51.462;7.338;2024-03-23T19:24:06;1.27;;;0.93;;
6878;SDS011;3478;51.462;7.338;2024-03-23T19:29:08;1.30;;;1.20;;
6878;SDS011;3478;51.462;7.338;2024-03-23T19:34:11;5.77;;;1.30;;
6878;SDS011;3478;51.462;7.338;2024-03-23T19:39:13;4.47;;;1.07;;
6878;SDS011;3478;51.462;7.338;2024-03-23T19:44:15;2.50;;;1.90;;
6878;SDS011;3478;51.462;7.338;2024-03-23T19:49:18;1.90;;;1.00;;
6878;SDS011;3478;51.462;7.338;2024-03-23T19:54:21;3.50;;;1.00;;
6878;SDS011;3478;51.462;7.338;2024-03-23T19:59:23;1.23;;;0.83;;
6878;SDS011;3478;51.462;7.338;2024-03-23T20:04:26;2.57;;;1.30;;
6878;SDS011;3478;51.462;7.338;2024-03-23T20:09:28;1.40;;;1.20;;
6878;SDS011;3478;51.462;7.338;2024-03-23T20:14:31;6.20;;;1.20;;
6878;SDS011;3478;51.462;7.338;2024-03-23T20:19:34;4.73;;;1.57;;
6878;SDS011;3478;51.462;7.338;2024-03-23T20:24:36;1.40;;;0.60;;
6878;SDS011;3478;51.462;7.338;2024-03-23T20:29:38;2.50;;;1.37;;
6878;SDS011;3478;51.462;7.338;2024-03-23T20:34:41;1.30;;;0.93;;
6878;SDS011;3478;51.462;7.338;2024-03-23T20:39:43;4.03;;;1.00;;
6878;SDS011;3478;51.462;7.338;2024-03-23T20:44:44;1.83;;;1.40;;
6878;SDS011;3478;51.462;7.338;2024-03-23T20:49:49;2.27;;;1.33;;
6878;SDS011;3478;51.462;7.338;2024-03-23T20:54:51;2.30;;;2.10;;
6878;SDS011;3478;51.462;7.338;2024-03-23T20:59:53;3.13;;;2.87;;
6878;SDS011;3478;51.462;7.338;2024-03-23T21:04:57;4.20;;;3.80;;
6878;SDS011;3478;51.462;7.338;2024-03-23T21:09:59;3.97;;;3.57;;
6878;SDS011;3478;51.462;7.338;2024-03-23T21:15:01;7.07;;;3.70;;
6878;SDS011;3478;51.462;7.338;2024-03-23T21:20:06;4.83;;;4.30;;
6878;SDS011;3478;51.462;7.338;2024-03-23T21:25:09;5.80;;;5.20;;
6878;SDS011;3478;51.462;7.338;2024-03-23T21:30:11;5.03;;;4.63;;
6878;SDS011;3478;51.462;7.338;2024-03-23T21:35:16;9.27;;;6.70;;
6878;SDS011;3478;51.462;7.338;2024-03-23T21:40:20;15.30;;;10.97;;
6878;SDS011;3478;51.462;7.338;2024-03-23T21:45:21;10.67;;;9.50;;
6878;SDS011;3478;51.462;7.338;2024-03-23T21:50:25;8.10;;;7.40;;
6878;SDS011;3478;51.462;7.338;2024-03-23T21:55:26;6.77;;;6.10;;
6878;SDS011;3478;51.462;7.338;2024-03-23T22:00:28;7.87;;;6.93;;
6878;SDS011;3478;51.462;7.338;2024-03-23T22:05:31;6.40;;;5.80;;
6878;SDS011;3478;51.462;7.338;2024-03-23T22:10:34;7.17;;;6.20;;
6878;SDS011;3478;51.462;7.338;2024-03-23T22:15:39;7.23;;;5.10;;
6878;SDS011;3478;51.462;7.338;2024-03-23T22:20:44;5.83;;;5.20;;
6878;SDS011;3478;51.462;7.338;2024-03-23T22:25:47;6.50;;;5.73;;
6878;SDS011;3478;51.462;7.338;2024-03-23T22:30:55;7.50;;;4.60;;
6878;SDS011;3478;51.462;7.338;2024-03-23T22:35:58;9.47;;;5.77;;
6878;SDS011;3478;51.462;7.338;2024-03-23T22:41:01;7.90;;;6.60;;
6878;SDS011;3478;51.462;7.338;2024-03-23T22:46:04;11.63;;;5.13;;
6878;SDS011;3478;51.462;7.338;2024-03-23T22:51:12;6.40;;;4.90;;
6878;SDS011;3478;51.462;7.338;2024-03-23T22:56:14;8.33;;;4.57;;
6878;SDS011;3478;51.462;7.338;2024-03-23T23:01:17;5.30;;;4.03;;
6878;SDS011;3478;51.462;7.338;2024-03-23T23:06:20;8.97;;;3.90;;
6878;SDS011;3478;51.462;7.338;2024-03-23T23:11:22;6.77;;;4.27;;
6878;SDS011;3478;51.462;7.338;2024-03-23T23:16:24;9.30;;;4.80;;
6878;SDS011;3478;51.462;7.338;2024-03-23T23:21:27;6.03;;;4.50;;
6878;SDS011;3478;51.462;7.338;2024-03-23T23:26:29;4.93;;;3.80;;
6878;SDS011;3478;51.462;7.338;2024-03-23T23:31:31;7.57;;;3.97;;
6878;SDS011;3478;51.462;7.338;2024-03-23T23:36:34;4.53;;;3.10;;
6878;SDS011;3478;51.462;7.338;2024-03-23T23:41:36;4.53;;;3.03;;
6878;SDS011;3478;51.462;7.338;2024-03-23T23:46:38;3.93;;;3.63;;
6878;SDS011;3478;51.462;7.338;2024-03-23T23:51:41;4.30;;;3.63;;
6878;SDS011;3478;51.462;7.338;2024-03-23T23:56:43;4.57;;;3.40;;
